createdAt,value
2022-09-02T00:01:25.085Z,93.30
2022-09-02T00:03:58.654Z,93.20
2022-09-02T00:06:27.899Z,94.00
2022-09-02T00:08:55.911Z,93.00
2022-09-02T00:11:27.380Z,94.30
2022-09-02T00:13:57.124Z,96.20
2022-09-02T00:16:25.961Z,97.00
2022-09-02T00:18:56.425Z,96.90
2022-09-02T00:21:24.607Z,96.90
2022-09-02T00:23:52.893Z,96.80
2022-09-02T00:26:21.367Z,96.50
2022-09-02T00:28:55.941Z,96.60
2022-09-02T00:31:25.798Z,97.60
2022-09-02T00:33:55.528Z,97.70
2022-09-02T00:36:23.589Z,98.20
2022-09-02T00:38:51.661Z,98.00
2022-09-02T00:41:22.588Z,97.50
2022-09-02T00:43:52.920Z,97.00
2022-09-02T00:46:24.889Z,96.60
2022-09-02T00:48:59.727Z,94.70
2022-09-02T00:51:31.576Z,95.70
2022-09-02T00:54:01.015Z,96.10
2022-09-02T00:56:32.379Z,95.90
2022-09-02T00:59:01.902Z,94.40
2022-09-02T01:01:29.900Z,94.70
2022-09-02T01:04:00.040Z,96.10
2022-09-02T01:06:33.102Z,95.90
2022-09-02T01:09:09.424Z,95.30
2022-09-02T01:11:41.628Z,95.40
2022-09-02T01:14:12.473Z,96.10
2022-09-02T01:16:44.938Z,97.10
2022-09-02T01:19:21.846Z,97.70
2022-09-02T01:21:52.784Z,95.60
2022-09-02T01:24:22.242Z,95.20
2022-09-02T01:26:54.827Z,95.50
2022-09-02T01:29:22.982Z,96.10
2022-09-02T01:31:51.400Z,96.60
2022-09-02T01:34:19.569Z,96.10
2022-09-02T01:36:47.738Z,97.50
2022-09-02T01:39:17.324Z,97.00
2022-09-02T01:41:45.371Z,96.60
2022-09-02T01:44:16.197Z,97.50
2022-09-02T01:46:44.461Z,96.80
2022-09-02T01:49:12.848Z,95.60
2022-09-02T01:51:41.897Z,96.70
2022-09-02T01:54:10.001Z,97.10
2022-09-02T01:56:39.880Z,97.70
2022-09-02T01:59:08.379Z,96.60
2022-09-02T02:01:36.951Z,97.40
2022-09-02T02:04:07.510Z,97.10
2022-09-02T02:06:40.378Z,96.20
2022-09-02T02:09:08.553Z,96.30
2022-09-02T02:11:36.696Z,96.50
2022-09-02T02:14:06.480Z,97.30
2022-09-02T02:16:34.561Z,97.60
2022-09-02T02:19:02.655Z,97.20
2022-09-02T02:21:30.746Z,97.80
2022-09-02T02:24:00.382Z,97.90
2022-09-02T02:26:28.457Z,98.50
2022-09-02T02:28:56.673Z,98.00
2022-09-02T02:31:26.154Z,98.60
2022-09-02T02:33:54.268Z,97.80
2022-09-02T02:36:22.680Z,98.40
2022-09-02T02:38:50.771Z,99.90
2022-09-02T02:43:48.113Z,97.10
2022-09-02T02:46:17.891Z,96.10
2022-09-02T02:48:47.374Z,97.10
2022-09-02T02:51:15.675Z,96.50
2022-09-02T02:53:43.922Z,97.40
2022-09-02T02:56:12.039Z,97.20
2022-09-02T02:58:40.088Z,97.00
2022-09-02T03:01:08.103Z,97.80
2022-09-02T03:03:36.163Z,98.00
2022-09-02T03:06:05.709Z,99.50
2022-09-02T03:08:35.242Z,99.90
2022-09-02T03:11:04.014Z,99.90
2022-09-02T03:13:33.274Z,99.90
2022-09-02T03:16:01.551Z,99.90
2022-09-02T03:18:29.634Z,99.90
2022-09-02T03:20:57.667Z,99.90
2022-09-02T03:23:27.072Z,99.90
2022-09-02T03:25:55.335Z,99.60
2022-09-02T03:28:23.336Z,99.60
2022-09-02T03:30:51.418Z,99.50
2022-09-02T03:33:19.986Z,99.00
2022-09-02T03:35:48.036Z,98.90
2022-09-02T03:38:16.035Z,99.40
2022-09-02T03:40:45.470Z,99.60
2022-09-02T03:43:13.667Z,99.00
2022-09-02T03:48:12.366Z,99.00
2022-09-02T03:50:43.270Z,99.10
2022-09-02T03:53:19.742Z,98.70
2022-09-02T03:55:50.792Z,98.20
2022-09-02T03:58:19.817Z,97.70
2022-09-02T04:00:52.666Z,97.80
2022-09-02T04:03:21.499Z,97.80
2022-09-02T04:05:50.717Z,98.80
2022-09-02T04:08:19.285Z,98.50
2022-09-02T04:10:48.988Z,98.20
2022-09-02T04:13:17.326Z,98.30
2022-09-02T04:15:48.268Z,98.80
2022-09-02T04:18:17.634Z,98.20
2022-09-02T04:20:46.152Z,99.40
2022-09-02T04:23:14.233Z,99.40
2022-09-02T04:25:42.907Z,99.50
2022-09-02T04:28:13.057Z,99.10
2022-09-02T04:30:41.900Z,98.60
2022-09-02T04:33:10.136Z,98.70
2022-09-02T04:35:41.139Z,99.90
2022-09-02T04:38:09.825Z,99.70
2022-09-02T04:40:42.362Z,99.30
2022-09-02T04:43:12.142Z,99.60
2022-09-02T04:45:41.975Z,99.80
2022-09-02T04:48:09.982Z,99.90
2022-09-02T04:50:39.432Z,99.90
2022-09-02T04:53:07.960Z,99.80
2022-09-02T04:55:36.356Z,99.90
2022-09-02T04:58:04.405Z,99.90
2022-09-02T05:00:34.085Z,99.60
2022-09-02T05:03:02.398Z,99.90
2022-09-02T05:05:30.635Z,99.90
2022-09-02T05:07:58.741Z,99.90
2022-09-02T05:10:26.755Z,99.90
2022-09-02T05:12:55.168Z,99.90
2022-09-02T05:15:23.213Z,99.90
2022-09-02T05:17:52.755Z,99.90
2022-09-02T05:20:20.622Z,99.90
2022-09-02T05:22:49.981Z,99.90
2022-09-02T05:25:18.558Z,99.90
2022-09-02T05:27:46.624Z,99.90
2022-09-02T05:30:14.927Z,99.90
2022-09-02T05:32:42.975Z,99.90
2022-09-02T05:35:12.351Z,99.90
2022-09-02T05:37:40.437Z,98.80
2022-09-02T05:40:14.932Z,98.70
2022-09-02T05:42:43.508Z,98.20
2022-09-02T05:45:12.775Z,97.60
2022-09-02T05:47:44.565Z,98.70
2022-09-02T05:50:14.973Z,98.10
2022-09-02T05:52:43.052Z,97.50
2022-09-02T05:55:11.499Z,97.60
2022-09-02T05:57:39.507Z,97.00
2022-09-02T06:00:10.268Z,97.10
2022-09-02T06:02:38.218Z,96.60
2022-09-02T06:05:07.159Z,97.00
2022-09-02T06:07:37.723Z,96.00
2022-09-02T06:10:07.472Z,94.90
2022-09-02T06:12:39.494Z,93.90
2022-09-02T06:15:14.759Z,91.50
2022-09-02T06:17:42.774Z,92.00
2022-09-02T06:20:11.886Z,91.10
2022-09-02T06:22:41.415Z,90.90
2022-09-02T06:25:09.747Z,83.70
2022-09-02T06:27:39.940Z,72.10
2022-09-02T06:30:09.213Z,76.10
2022-09-02T06:32:37.352Z,77.40
2022-09-02T06:35:08.658Z,74.10
2022-09-02T06:37:36.741Z,70.90
2022-09-02T06:40:07.772Z,62.30
2022-09-02T06:42:35.878Z,54.90
2022-09-02T06:45:04.759Z,52.60
2022-09-02T06:47:32.777Z,41.40
2022-09-02T06:50:01.247Z,45.80
2022-09-02T06:52:29.276Z,38.10
2022-09-02T06:54:57.302Z,35.40
2022-09-02T06:57:31.500Z,25.20
2022-09-02T07:00:03.567Z,25.80
2022-09-02T07:02:31.605Z,21.50
2022-09-02T07:05:11.015Z,14.80
2022-09-02T07:07:44.314Z,16.00
2022-09-02T07:10:14.501Z,1.00
2022-09-02T07:12:44.165Z,1.00
2022-09-02T07:15:13.018Z,1.00
2022-09-02T07:17:41.149Z,1.00
2022-09-02T07:20:09.556Z,1.00
2022-09-02T07:22:38.997Z,1.00
2022-09-02T07:25:07.676Z,1.00
2022-09-02T07:27:35.893Z,1.00
2022-09-02T07:30:06.703Z,1.00
2022-09-02T07:32:35.088Z,1.00
2022-09-02T07:35:04.444Z,1.00
2022-09-02T07:37:32.471Z,1.00
2022-09-02T07:40:00.524Z,1.00
2022-09-02T07:42:28.599Z,1.00
2022-09-02T07:44:57.864Z,1.00
2022-09-02T07:47:27.245Z,1.00
2022-09-02T07:52:43.136Z,1.00
2022-09-02T07:55:14.868Z,1.00
2022-09-02T07:57:43.330Z,1.00
2022-09-02T08:00:13.776Z,1.00
2022-09-02T08:02:43.544Z,1.00
2022-09-02T08:05:12.532Z,1.00
2022-09-02T08:07:40.599Z,1.00
2022-09-02T08:10:12.958Z,1.00
2022-09-02T08:12:42.147Z,1.00
2022-09-02T08:15:12.149Z,1.00
2022-09-02T08:17:43.173Z,1.00
2022-09-02T08:20:13.104Z,1.00
2022-09-02T08:22:41.860Z,1.00
2022-09-02T08:25:12.667Z,1.00
2022-09-02T08:27:43.272Z,1.00
2022-09-02T08:30:12.792Z,1.00
2022-09-02T08:32:42.855Z,1.00
2022-09-02T08:35:12.037Z,1.00
2022-09-02T08:37:40.355Z,1.00
2022-09-02T08:40:14.313Z,1.00
2022-09-02T08:42:49.647Z,1.00
2022-09-02T08:45:24.304Z,1.00
2022-09-02T08:48:02.540Z,1.00
2022-09-02T08:50:32.596Z,1.00
2022-09-02T08:53:08.999Z,1.00
2022-09-02T08:55:44.320Z,1.00
2022-09-02T08:58:18.094Z,1.00
2022-09-02T09:00:51.218Z,1.00
2022-09-02T09:03:28.781Z,1.00
2022-09-02T09:06:07.333Z,1.00
2022-09-02T09:08:45.142Z,1.00
2022-09-02T09:11:21.989Z,1.00
2022-09-02T09:14:11.137Z,1.00
2022-09-02T09:16:49.574Z,1.00
2022-09-02T09:19:29.919Z,1.00
2022-09-02T09:22:03.200Z,1.00
2022-09-02T09:24:36.787Z,1.00
2022-09-02T09:27:09.867Z,1.00
2022-09-02T09:29:38.043Z,1.00
2022-09-02T09:32:12.670Z,1.00
2022-09-02T09:35:03.141Z,1.00
2022-09-02T09:37:36.926Z,1.00
2022-09-02T09:40:30.564Z,1.00
2022-09-02T09:43:22.765Z,1.00
2022-09-02T09:45:51.460Z,1.00
2022-09-02T09:48:28.369Z,1.00
2022-09-02T09:51:14.453Z,1.00
2022-09-02T09:53:42.769Z,1.00
2022-09-02T09:56:37.660Z,1.00
2022-09-02T09:59:10.036Z,1.00
2022-09-02T10:01:38.527Z,1.00
2022-09-02T10:04:32.373Z,1.00
2022-09-02T10:07:00.279Z,1.00
2022-09-02T10:09:34.436Z,1.00
2022-09-02T10:12:05.079Z,1.00
2022-09-02T10:14:38.328Z,1.00
2022-09-02T10:17:32.508Z,1.00
2022-09-02T10:20:08.876Z,1.00
2022-09-02T10:23:15.775Z,1.00
2022-09-02T10:26:00.271Z,1.00
2022-09-02T10:28:42.586Z,1.00
2022-09-02T10:31:20.646Z,1.00
2022-09-02T10:34:01.159Z,1.00
2022-09-02T10:36:37.451Z,1.00
2022-09-02T10:39:18.728Z,1.00
2022-09-02T10:41:52.050Z,1.00
2022-09-02T10:44:33.906Z,1.00
2022-09-02T10:47:04.757Z,1.00
2022-09-02T10:50:02.952Z,1.00
2022-09-02T10:52:50.856Z,1.00
2022-09-02T10:55:26.697Z,1.00
2022-09-02T10:58:04.456Z,1.00
2022-09-02T11:00:36.322Z,1.00
2022-09-02T11:03:13.851Z,1.00
2022-09-02T11:05:48.347Z,1.00
2022-09-02T11:08:27.295Z,1.00
2022-09-02T11:11:05.015Z,1.00
2022-09-02T11:13:40.163Z,1.00
2022-09-02T11:16:15.337Z,1.00
2022-09-02T11:18:50.996Z,1.00
2022-09-02T11:21:32.707Z,1.00
2022-09-02T11:24:06.237Z,1.00
2022-09-02T11:26:40.415Z,1.00
2022-09-02T11:29:15.531Z,1.00
2022-09-02T11:31:47.778Z,1.00
2022-09-02T11:34:27.164Z,1.00
2022-09-02T11:36:55.231Z,1.00
2022-09-02T11:39:51.496Z,1.00
2022-09-02T11:42:33.334Z,1.00
2022-09-02T11:45:24.453Z,1.00
2022-09-02T11:48:25.575Z,1.00
2022-09-02T11:53:49.961Z,1.00
2022-09-02T11:56:26.563Z,1.00
2022-09-02T11:58:54.704Z,1.00
2022-09-02T12:01:31.575Z,1.00
2022-09-02T12:07:26.751Z,1.00
2022-09-02T12:09:58.976Z,1.00
2022-09-02T12:13:04.095Z,1.00
2022-09-02T12:15:36.587Z,1.00
2022-09-02T12:18:13.809Z,1.00
2022-09-02T12:21:23.394Z,1.00
2022-09-02T12:24:25.084Z,1.00
2022-09-02T12:27:10.700Z,1.00
2022-09-02T12:29:39.790Z,1.00
2022-09-02T12:32:09.685Z,1.00
2022-09-02T12:35:08.281Z,1.00
2022-09-02T12:37:57.639Z,1.00
2022-09-02T12:40:35.186Z,1.00
2022-09-02T12:43:15.632Z,1.00
2022-09-02T12:45:45.323Z,1.00
2022-09-02T12:48:18.040Z,1.00
2022-09-02T12:51:02.054Z,1.00
2022-09-02T12:53:36.311Z,1.00
2022-09-02T12:56:09.504Z,1.00
2022-09-02T12:58:46.499Z,1.00
2022-09-02T13:01:20.449Z,1.00
2022-09-02T13:04:12.835Z,1.00
2022-09-02T13:07:21.421Z,1.00
2022-09-02T13:10:18.271Z,1.00
2022-09-02T13:13:10.929Z,1.00
2022-09-02T13:16:01.460Z,1.00
2022-09-02T13:18:58.152Z,1.00
2022-09-02T13:21:47.546Z,1.00
2022-09-02T13:24:52.641Z,1.00
2022-09-02T13:27:48.299Z,1.00
2022-09-02T13:30:21.943Z,1.00
2022-09-02T13:32:58.203Z,1.00
2022-09-02T13:35:28.965Z,1.00
2022-09-02T13:38:00.242Z,1.00
2022-09-02T13:40:33.493Z,1.00
2022-09-02T13:43:03.016Z,1.00
2022-09-02T13:45:34.208Z,1.00
2022-09-02T13:48:08.085Z,1.00
2022-09-02T13:50:38.259Z,1.00
2022-09-02T13:56:00.245Z,1.00
2022-09-02T13:58:36.312Z,1.00
2022-09-02T14:01:21.024Z,1.00
2022-09-02T14:03:51.510Z,1.00
2022-09-02T14:06:23.487Z,1.00
2022-09-02T14:08:54.870Z,1.00
2022-09-02T14:11:24.671Z,1.00
2022-09-02T14:13:53.487Z,1.00
2022-09-02T14:16:29.591Z,1.00
2022-09-02T14:19:08.375Z,1.00
2022-09-02T14:21:45.780Z,1.00
2022-09-02T14:24:15.888Z,1.00
2022-09-02T14:26:47.637Z,1.00
2022-09-02T14:29:17.995Z,1.00
2022-09-02T14:31:46.810Z,1.00
2022-09-02T14:34:35.155Z,1.00
2022-09-02T14:37:19.207Z,1.00
2022-09-02T14:40:08.700Z,1.00
2022-09-02T14:42:48.509Z,1.00
2022-09-02T14:45:27.610Z,1.00
2022-09-02T14:47:57.921Z,1.00
2022-09-02T14:50:30.563Z,1.00
2022-09-02T14:53:04.746Z,1.00
2022-09-02T14:55:53.187Z,1.00
2022-09-02T14:58:26.802Z,1.00
2022-09-02T15:00:57.579Z,1.00
2022-09-02T15:03:26.349Z,1.00
2022-09-02T15:05:54.388Z,1.00
2022-09-02T15:08:23.351Z,1.00
2022-09-02T15:10:52.475Z,1.00
2022-09-02T15:13:29.584Z,1.00
2022-09-02T15:15:59.339Z,1.00
2022-09-02T15:18:27.430Z,1.00
2022-09-02T15:20:55.476Z,1.00
2022-09-02T15:23:24.122Z,1.00
2022-09-02T15:25:54.456Z,1.00
2022-09-02T15:28:23.896Z,1.00
2022-09-02T15:30:58.603Z,1.00
2022-09-02T15:33:27.361Z,1.00
2022-09-02T15:35:55.725Z,1.00
2022-09-02T15:38:23.820Z,1.00
2022-09-02T15:40:51.903Z,1.00
2022-09-02T15:43:21.307Z,1.00
2022-09-02T15:45:50.798Z,1.00
2022-09-02T15:48:18.861Z,1.00
2022-09-02T15:50:46.895Z,1.00
2022-09-02T15:53:16.380Z,1.00
2022-09-02T15:55:44.465Z,1.00
2022-09-02T15:58:12.493Z,1.00
2022-09-02T16:00:41.307Z,1.00
2022-09-02T16:03:13.265Z,1.00
2022-09-02T16:05:43.117Z,1.00
2022-09-02T16:08:11.508Z,1.00
2022-09-02T16:10:40.302Z,1.00
2022-09-02T16:13:08.369Z,1.00
2022-09-02T16:15:36.404Z,1.00
2022-09-02T16:18:04.447Z,1.00
2022-09-02T16:20:33.891Z,1.00
2022-09-02T16:23:01.828Z,1.00
2022-09-02T16:25:29.868Z,1.00
2022-09-02T16:27:57.905Z,1.00
2022-09-02T16:30:26.499Z,1.00
2022-09-02T16:32:54.668Z,1.00
2022-09-02T16:35:22.717Z,1.00
2022-09-02T16:37:53.680Z,1.00
2022-09-02T16:40:22.153Z,1.00
2022-09-02T16:42:50.416Z,1.00
2022-09-02T16:45:19.506Z,1.00
2022-09-02T16:47:47.766Z,1.00
2022-09-02T16:50:15.916Z,1.00
2022-09-02T16:52:44.154Z,1.00
2022-09-02T16:55:17.791Z,1.00
2022-09-02T16:57:45.828Z,1.00
2022-09-02T17:00:15.312Z,1.00
2022-09-02T17:02:45.112Z,1.00
2022-09-02T17:05:14.394Z,1.00
2022-09-02T17:07:42.528Z,1.00
2022-09-02T17:10:11.346Z,1.00
2022-09-02T17:12:43.006Z,1.00
2022-09-02T17:15:11.699Z,1.00
2022-09-02T17:17:40.071Z,1.00
2022-09-02T17:20:08.900Z,1.00
2022-09-02T17:22:37.078Z,1.00
2022-09-02T17:25:05.438Z,1.00
2022-09-02T17:27:36.196Z,1.00
2022-09-02T17:30:06.412Z,1.00
2022-09-02T17:32:34.807Z,1.00
2022-09-02T17:35:03.113Z,1.00
2022-09-02T17:37:31.477Z,1.00
2022-09-02T17:39:59.718Z,1.00
2022-09-02T17:42:26.839Z,1.00
2022-09-02T17:44:54.896Z,1.00
2022-09-02T17:47:24.956Z,1.00
2022-09-02T17:49:53.347Z,1.00
2022-09-02T17:52:23.365Z,1.00
2022-09-02T17:54:52.888Z,1.00
2022-09-02T17:57:42.759Z,1.00
2022-09-02T18:00:12.500Z,1.00
2022-09-02T18:03:12.443Z,1.00
2022-09-02T18:05:52.823Z,1.00
2022-09-02T18:08:32.096Z,1.00
2022-09-02T18:11:05.077Z,1.00
2022-09-02T18:13:41.840Z,1.00
2022-09-02T18:16:32.013Z,1.00
2022-09-02T18:19:13.110Z,1.00
2022-09-02T18:21:59.305Z,1.00
2022-09-02T18:24:41.038Z,1.00
2022-09-02T18:27:17.611Z,1.00
2022-09-02T18:29:56.925Z,1.00
2022-09-02T18:32:37.586Z,1.00
2022-09-02T18:35:21.657Z,1.00
2022-09-02T18:38:01.756Z,1.00
2022-09-02T18:40:42.402Z,1.00
2022-09-02T18:43:19.574Z,1.00
2022-09-02T18:45:50.194Z,1.00
2022-09-02T18:48:22.194Z,1.00
2022-09-02T18:50:54.533Z,1.00
2022-09-02T18:53:25.441Z,1.00
2022-09-02T18:55:55.936Z,1.00
2022-09-02T18:58:35.057Z,1.00
2022-09-02T19:01:07.578Z,1.00
2022-09-02T19:03:38.116Z,1.00
2022-09-02T19:06:13.108Z,1.00
2022-09-02T19:08:41.240Z,1.00
2022-09-02T19:11:12.732Z,1.00
2022-09-02T19:13:46.903Z,1.00
2022-09-02T19:16:18.201Z,1.00
2022-09-02T19:18:46.351Z,1.00
2022-09-02T19:21:19.361Z,1.00
2022-09-02T19:23:49.084Z,1.00
2022-09-02T19:26:17.946Z,1.00
2022-09-02T19:28:48.296Z,1.00
2022-09-02T19:31:21.568Z,1.00
2022-09-02T19:33:53.153Z,1.00
2022-09-02T19:36:26.273Z,1.00
2022-09-02T19:38:56.519Z,1.00
2022-09-02T19:41:27.589Z,1.00
2022-09-02T19:43:55.894Z,1.00
2022-09-02T19:49:12.524Z,1.00
2022-09-02T19:51:44.277Z,1.00
2022-09-02T19:54:14.740Z,1.00
2022-09-02T19:56:42.981Z,1.00
2022-09-02T19:59:11.040Z,1.00
2022-09-02T20:01:39.310Z,1.00
2022-09-02T20:04:07.528Z,1.00
2022-09-02T20:06:35.911Z,1.00
2022-09-02T20:09:05.893Z,1.00
2022-09-02T20:11:34.852Z,1.00
2022-09-02T20:14:05.242Z,1.00
2022-09-02T20:16:34.248Z,1.00
2022-09-02T20:19:02.603Z,1.00
2022-09-02T20:21:32.542Z,1.00
2022-09-02T20:24:04.519Z,1.00
2022-09-02T20:26:46.419Z,1.00
2022-09-02T20:29:32.335Z,1.00
2022-09-02T20:32:12.265Z,1.00
2022-09-02T20:34:57.125Z,1.00
2022-09-02T20:37:35.903Z,1.00
2022-09-02T20:40:23.583Z,1.00
2022-09-02T20:43:20.223Z,2.00
2022-09-02T20:45:56.401Z,4.60
2022-09-02T20:48:41.450Z,3.10
2022-09-02T20:51:13.043Z,2.30
2022-09-02T20:54:03.316Z,7.20
2022-09-02T20:56:41.269Z,6.60
2022-09-02T20:59:18.313Z,3.80
2022-09-02T21:01:48.319Z,5.30
2022-09-02T21:04:29.326Z,11.20
2022-09-02T21:07:03.394Z,16.90
2022-09-02T21:09:40.628Z,17.80
2022-09-02T21:12:19.515Z,23.50
2022-09-02T21:14:53.420Z,25.80
2022-09-02T21:17:29.013Z,26.30
2022-09-02T21:20:07.780Z,22.30
2022-09-02T21:22:39.679Z,18.10
2022-09-02T21:25:12.355Z,15.80
2022-09-02T21:27:48.389Z,16.80
2022-09-02T21:30:21.922Z,16.70
2022-09-02T21:32:52.637Z,21.30
2022-09-02T21:35:24.210Z,18.70
2022-09-02T21:37:59.109Z,20.80
2022-09-02T21:40:39.628Z,25.20
2022-09-02T21:43:22.919Z,24.70
2022-09-02T21:46:00.859Z,28.80
2022-09-02T21:48:33.851Z,26.70
2022-09-02T21:51:05.565Z,27.90
2022-09-02T21:53:49.653Z,26.40
2022-09-02T21:56:32.256Z,26.90
2022-09-02T21:59:29.484Z,31.60
2022-09-02T22:02:05.485Z,33.20
2022-09-02T22:04:52.774Z,32.50
2022-09-02T22:07:28.398Z,30.00
2022-09-02T22:10:08.885Z,33.90
2022-09-02T22:12:39.600Z,36.30
2022-09-02T22:15:13.393Z,35.20
2022-09-02T22:17:49.133Z,36.10
2022-09-02T22:20:21.697Z,36.60
2022-09-02T22:22:54.295Z,40.30
2022-09-02T22:25:23.179Z,43.70
2022-09-02T22:27:55.087Z,40.00
2022-09-02T22:30:23.391Z,44.00
2022-09-02T22:33:02.588Z,41.80
2022-09-02T22:35:36.772Z,47.60
2022-09-02T22:38:10.632Z,46.40
2022-09-02T22:40:43.332Z,47.30
2022-09-02T22:43:14.777Z,54.20
2022-09-02T22:46:07.103Z,57.30
2022-09-02T22:48:57.942Z,57.10
2022-09-02T22:51:51.412Z,59.30
2022-09-02T22:54:19.461Z,56.10
2022-09-02T22:56:59.730Z,55.40
2022-09-02T22:59:38.994Z,53.10
2022-09-02T23:02:19.455Z,52.90
2022-09-02T23:05:04.832Z,52.60
2022-09-02T23:07:33.272Z,52.90
2022-09-02T23:10:01.956Z,53.90
2022-09-02T23:12:39.071Z,54.00
2022-09-02T23:15:22.664Z,54.00
2022-09-02T23:17:57.309Z,51.90
2022-09-02T23:20:32.784Z,67.80
2022-09-02T23:23:15.795Z,64.40
2022-09-02T23:26:03.808Z,65.30
2022-09-02T23:28:39.047Z,71.70
2022-09-02T23:31:17.823Z,71.00
2022-09-02T23:33:54.459Z,64.40
2022-09-02T23:36:35.066Z,65.90
2022-09-02T23:39:22.150Z,71.10
2022-09-02T23:41:50.252Z,69.70
2022-09-02T23:44:18.288Z,68.10
2022-09-02T23:46:55.498Z,68.40
2022-09-02T23:49:34.120Z,62.70
2022-09-02T23:52:11.082Z,63.10
2022-09-02T23:54:51.951Z,66.20
2022-09-02T23:57:35.866Z,62.00
